Time;durP1;ratioP1;P1;durP2;ratioP2;P2;SDS_P1;SDS_P2;PMS_P1;PMS_P2;Temp;Humidity;BMP_temperature;BMP_pressure;BME280_temperature;BME280_humidity;BME280_pressure;Samples;Min_cycle;Max_cycle;Signal;HPM_P1;HPM_P2
2023/04/09 00:03:30;;;;;;;;;;;;;;;8.22;85.86;97996.63;10356517;28;19920;-49
2023/04/09 00:08:29;;;;;;;;;;;;;;;8.21;86.34;97996.63;10359835;28;20002;-49
2023/04/09 00:13:27;;;;;;;;;;;;;;;8.22;86.29;97988.88;10358321;28;20007;-50
2023/04/09 00:18:26;;;;;;;;;;;;;;;8.18;86.38;98001.78;10357234;28;19912;-52
2023/04/09 00:23:25;;;;;;;;;;;;;;;8.16;86.63;98000.88;10359366;28;19955;-51
2023/04/09 00:28:24;;;;;;;;;;;;;;;8.06;86.77;98005.94;10351716;28;19924;-52
2023/04/09 00:33:23;;;;;;;;;;;;;;;8.03;87.29;98003.28;10339288;28;19916;-52
2023/04/09 00:38:21;;;;;;;;;;;;;;;7.92;87.41;98004.88;10327643;28;20020;-52
2023/04/09 00:43:21;;;;;;;;;;;;;;;7.71;87.95;98012.31;10342111;28;19956;-51
2023/04/09 00:48:20;;;;;;;;;;;;;;;7.63;88.28;98013.06;10341450;28;19999;-50
2023/04/09 00:53:18;;;;;;;;;;;;;;;7.74;88.67;98014.97;10339551;28;20000;-50
2023/04/09 00:58:17;;;;;;;;;;;;;;;7.82;88.89;98005.59;10336251;28;19971;-51
2023/04/09 01:03:16;;;;;;;;;;;;;;;7.89;88.28;98010.00;10334801;28;20402;-52
2023/04/09 01:08:15;;;;;;;;;;;;;;;7.90;88.54;98005.69;10337569;28;19909;-51
2023/04/09 01:13:27;;;;;;;;;;;;;;;7.93;88.75;98018.66;10330666;28;19964;-49
2023/04/09 01:18:26;;;;;;;;;;;;;;;7.97;88.55;98017.88;10331898;28;20004;-49
2023/04/09 01:23:38;;;;;;;;;;;;;;;7.96;88.59;98014.38;10337116;28;19921;-51
2023/04/09 01:28:44;;;;;;;;;;;;;;;8.01;88.75;98015.34;10344836;28;20028;-51
2023/04/09 01:33:43;;;;;;;;;;;;;;;8.08;88.81;98012.00;10358722;28;20561;-51
2023/04/09 01:38:44;;;;;;;;;;;;;;;8.08;88.47;98009.41;10356902;28;20003;-51
2023/04/09 01:43:44;;;;;;;;;;;;;;;7.95;87.88;98014.38;10377627;28;19951;-52
2023/04/09 01:48:43;;;;;;;;;;;;;;;7.97;88.40;98016.16;10398121;28;19948;-51
2023/04/09 01:53:42;;;;;;;;;;;;;;;8.07;88.41;98014.53;10365516;28;19967;-52
2023/04/09 01:58:41;;;;;;;;;;;;;;;7.99;87.32;98014.44;10368034;28;19913;-51
2023/04/09 02:03:47;;;;;;;;;;;;;;;7.87;87.20;98007.41;10379014;28;19978;-51
2023/04/09 02:08:46;;;;;;;;;;;;;;;7.74;87.36;98009.78;10378360;28;19959;-52
2023/04/09 02:13:45;;;;;;;;;;;;;;;7.69;87.62;98009.72;10378756;28;19940;-50
2023/04/09 02:18:44;;;;;;;;;;;;;;;7.71;87.30;98014.88;10378308;28;19916;-52
2023/04/09 02:23:43;;;;;;;;;;;;;;;7.70;87.34;98008.00;10378653;28;19908;-51
2023/04/09 02:28:41;;;;;;;;;;;;;;;7.79;87.54;98010.72;10407771;28;20458;-51
2023/04/09 02:33:41;;;;;;;;;;;;;;;7.82;87.05;98006.44;10419488;28;20378;-51
2023/04/09 02:38:40;;;;;;;;;;;;;;;7.74;86.73;98013.22;10419357;28;20000;-51
2023/04/09 02:43:39;;;;;;;;;;;;;;;7.70;86.92;98008.88;10419329;28;20452;-51
2023/04/09 02:48:38;;;;;;;;;;;;;;;7.65;86.54;98013.97;10419261;28;19931;-52
2023/04/09 02:53:39;;;;;;;;;;;;;;;7.54;85.98;98023.25;10419258;28;19916;-49
2023/04/09 02:58:38;;;;;;;;;;;;;;;7.57;85.73;98018.16;10418085;28;19999;-49
2023/04/09 03:03:38;;;;;;;;;;;;;;;7.54;85.56;98012.94;10417940;28;19969;-52
2023/04/09 03:08:37;;;;;;;;;;;;;;;7.52;85.99;98024.09;10417997;28;20093;-51
2023/04/09 03:13:36;;;;;;;;;;;;;;;7.40;85.95;98019.59;10411975;28;20340;-52
2023/04/09 03:18:35;;;;;;;;;;;;;;;7.29;86.10;98015.94;10411718;28;19977;-50
2023/04/09 03:23:34;;;;;;;;;;;;;;;7.27;86.76;98020.22;10411628;28;19959;-50
2023/04/09 03:28:33;;;;;;;;;;;;;;;7.34;86.75;98029.81;10376990;28;19947;-49
2023/04/09 03:33:31;;;;;;;;;;;;;;;7.36;85.82;98030.72;10370530;28;19916;-51
2023/04/09 03:38:30;;;;;;;;;;;;;;;7.34;86.06;98022.06;10369737;28;19917;-52
2023/04/09 03:43:29;;;;;;;;;;;;;;;7.40;86.59;98023.03;10369494;28;19923;-52
2023/04/09 03:48:28;;;;;;;;;;;;;;;7.56;86.03;98026.75;10369443;28;19956;-51
2023/04/09 03:53:26;;;;;;;;;;;;;;;7.60;85.77;98028.53;10384324;28;20017;-52
2023/04/09 03:58:25;;;;;;;;;;;;;;;7.64;85.86;98030.31;10410090;28;20010;-52
2023/04/09 04:03:24;;;;;;;;;;;;;;;7.44;86.74;98039.47;10410396;28;19958;-51
2023/04/09 04:08:23;;;;;;;;;;;;;;;7.53;86.63;98036.16;10409646;28;20003;-52
2023/04/09 04:13:21;;;;;;;;;;;;;;;7.33;87.73;98043.53;10409849;28;19966;-51
2023/04/09 04:18:20;;;;;;;;;;;;;;;7.37;87.82;98037.59;10409306;28;19920;-51
2023/04/09 04:23:19;;;;;;;;;;;;;;;7.55;87.39;98035.34;10409501;28;19916;-51
2023/04/09 04:28:18;;;;;;;;;;;;;;;7.57;87.29;98049.16;10392834;28;20404;-52
2023/04/09 04:33:17;;;;;;;;;;;;;;;7.65;87.30;98049.25;10408708;28;19920;-51
2023/04/09 04:38:16;;;;;;;;;;;;;;;7.85;87.15;98050.44;10374360;28;19952;-50
2023/04/09 04:43:14;;;;;;;;;;;;;;;7.96;87.30;98042.81;10404947;28;19923;-51
2023/04/09 04:48:13;;;;;;;;;;;;;;;8.13;86.92;98044.75;10452692;28;19965;-52
2023/04/09 04:53:12;;;;;;;;;;;;;;;8.25;86.24;98035.47;10452586;28;19928;-51
2023/04/09 04:58:11;;;;;;;;;;;;;;;8.34;85.61;98039.00;10452439;28;20397;-51
2023/04/09 05:03:10;;;;;;;;;;;;;;;8.42;84.93;98048.59;10425760;28;19980;-52
2023/04/09 05:08:08;;;;;;;;;;;;;;;8.19;84.49;98058.63;10410454;28;20014;-51
2023/04/09 05:13:07;;;;;;;;;;;;;;;8.12;84.97;98058.53;10410857;28;20030;-52
2023/04/09 05:18:07;;;;;;;;;;;;;;;7.76;86.15;98057.19;10410760;28;19952;-49
2023/04/09 05:23:05;;;;;;;;;;;;;;;7.91;85.77;98059.97;10410038;28;19955;-52
2023/04/09 05:28:04;;;;;;;;;;;;;;;8.09;85.42;98055.06;10410065;28;19923;-51
2023/04/09 05:33:03;;;;;;;;;;;;;;;8.29;85.04;98057.94;10408728;28;19967;-52
2023/04/09 05:38:01;;;;;;;;;;;;;;;8.58;84.33;98059.13;10406833;28;20031;-52
2023/04/09 05:43:00;;;;;;;;;;;;;;;8.51;81.94;98059.06;10406555;28;19970;-51
2023/04/09 05:47:59;;;;;;;;;;;;;;;8.63;82.10;98052.28;10405958;28;19959;-51
2023/04/09 05:52:58;;;;;;;;;;;;;;;8.97;81.49;98047.47;10406045;28;19931;-49
2023/04/09 05:57:57;;;;;;;;;;;;;;;9.17;81.47;98051.13;10405142;28;19963;-51
2023/04/09 06:02:55;;;;;;;;;;;;;;;9.39;80.70;98053.94;10405382;28;19943;-51
2023/04/09 06:07:55;;;;;;;;;;;;;;;9.69;79.29;98055.91;10405255;28;20003;-50
2023/04/09 06:12:54;;;;;;;;;;;;;;;9.83;77.57;98058.59;10405429;28;19982;-52
2023/04/09 06:17:52;;;;;;;;;;;;;;;10.00;75.95;98056.97;10405548;28;19994;-52
2023/04/09 06:22:51;;;;;;;;;;;;;;;9.87;76.28;98044.81;10405407;28;20007;-52
2023/04/09 06:27:50;;;;;;;;;;;;;;;10.11;75.69;98057.91;10404652;28;19920;-51
2023/04/09 06:32:49;;;;;;;;;;;;;;;10.23;74.02;98061.44;10404544;28;20514;-53
2023/04/09 06:37:48;;;;;;;;;;;;;;;10.33;74.10;98063.19;10405295;28;20611;-52
2023/04/09 06:42:47;;;;;;;;;;;;;;;10.44;73.87;98068.44;10403208;28;19916;-52
2023/04/09 06:47:45;;;;;;;;;;;;;;;10.61;73.98;98066.78;10409555;28;19912;-52
2023/04/09 06:52:45;;;;;;;;;;;;;;;10.76;74.85;98072.03;10406519;28;20335;-51
2023/04/09 06:57:43;;;;;;;;;;;;;;;10.96;74.02;98069.53;10405593;28;19999;-51
2023/04/09 07:02:42;;;;;;;;;;;;;;;11.08;71.54;98062.63;10405585;28;20009;-51
2023/04/09 07:07:41;;;;;;;;;;;;;;;11.16;71.72;98058.31;10405124;28;19912;-51
2023/04/09 07:12:39;;;;;;;;;;;;;;;11.45;72.27;98059.22;10401091;28;20077;-52
2023/04/09 07:17:38;;;;;;;;;;;;;;;11.71;70.01;98062.66;10404838;28;19912;-51
2023/04/09 07:22:38;;;;;;;;;;;;;;;11.73;68.13;98063.53;10405314;28;20007;-52
2023/04/09 07:27:36;;;;;;;;;;;;;;;11.67;66.31;98069.63;10405065;28;19971;-52
2023/04/09 07:32:36;;;;;;;;;;;;;;;11.70;67.90;98077.41;10404798;28;19966;-50
2023/04/09 07:37:35;;;;;;;;;;;;;;;11.88;66.56;98074.78;10407390;28;20008;-52
2023/04/09 07:42:36;;;;;;;;;;;;;;;11.95;64.73;98078.25;10406849;28;19916;-52
2023/04/09 07:47:35;;;;;;;;;;;;;;;11.61;64.40;98085.19;10406778;28;20014;-51
2023/04/09 07:52:33;;;;;;;;;;;;;;;11.61;63.55;98087.81;10403855;28;19923;-52
2023/04/09 07:57:32;;;;;;;;;;;;;;;12.11;64.39;98084.31;10404710;28;19913;-52
2023/04/09 08:02:31;;;;;;;;;;;;;;;12.35;62.59;98092.97;10404902;28;19940;-51
2023/04/09 08:07:29;;;;;;;;;;;;;;;12.40;59.07;98080.78;10406430;28;20688;-50
2023/04/09 08:12:28;;;;;;;;;;;;;;;12.41;58.35;98085.13;10405760;28;20356;-52
2023/04/09 08:17:27;;;;;;;;;;;;;;;12.80;60.63;98080.63;10405671;28;20390;-52
2023/04/09 08:22:26;;;;;;;;;;;;;;;13.13;60.03;98085.66;10405091;28;19916;-52
2023/04/09 08:27:24;;;;;;;;;;;;;;;13.01;58.41;98084.88;10405000;28;20530;-52
2023/04/09 08:32:23;;;;;;;;;;;;;;;12.85;57.73;98086.69;10405136;28;20334;-52
2023/04/09 08:37:22;;;;;;;;;;;;;;;12.89;57.13;98088.41;10399926;28;20387;-51
2023/04/09 08:42:22;;;;;;;;;;;;;;;12.77;58.24;98083.25;10404364;28;20411;-52
2023/04/09 08:47:21;;;;;;;;;;;;;;;12.61;59.28;98082.47;10405298;28;19959;-51
2023/04/09 08:52:29;;;;;;;;;;;;;;;12.86;60.38;98077.97;10403967;28;19991;-52
2023/04/09 08:57:28;;;;;;;;;;;;;;;13.34;57.74;98070.75;10402160;28;20042;-52
2023/04/09 09:02:27;;;;;;;;;;;;;;;13.56;55.14;98067.16;10414457;28;20399;-52
2023/04/09 09:07:31;;;;;;;;;;;;;;;13.83;54.33;98059.09;10396075;28;19904;-53
2023/04/09 09:12:33;;;;;;;;;;;;;;;14.32;56.23;98051.63;10387008;28;20380;-52
2023/04/09 09:17:33;;;;;;;;;;;;;;;14.61;52.23;98055.66;10410163;28;19994;-53
2023/04/09 09:22:47;;;;;;;;;;;;;;;14.40;51.83;98059.38;10396794;28;20324;-53
2023/04/09 09:27:46;;;;;;;;;;;;;;;13.41;53.46;98051.59;10405775;28;19951;-52
2023/04/09 09:32:45;;;;;;;;;;;;;;;13.07;54.74;98057.06;10402494;28;20038;-51
2023/04/09 09:37:44;;;;;;;;;;;;;;;12.92;54.20;98052.78;10406042;28;20408;-52
2023/04/09 09:42:55;;;;;;;;;;;;;;;13.23;56.12;98049.97;10405612;28;19912;-52
2023/04/09 09:47:55;;;;;;;;;;;;;;;13.57;55.64;98041.94;10421153;28;19943;-52
2023/04/09 09:53:00;;;;;;;;;;;;;;;13.18;54.39;98033.50;10404301;28;19959;-53
2023/04/09 09:58:03;;;;;;;;;;;;;;;13.54;53.93;98035.00;10406076;28;19990;-51
2023/04/09 10:03:22;;;;;;;;;;;;;;;13.43;54.40;98029.00;10388190;28;19955;-52
2023/04/09 10:08:21;;;;;;;;;;;;;;;13.76;52.79;98024.38;10405611;28;20394;-52
2023/04/09 10:13:32;;;;;;;;;;;;;;;13.98;53.34;98022.41;10406246;28;20082;-52
2023/04/09 10:18:34;;;;;;;;;;;;;;;14.01;52.92;98024.13;10405252;28;20386;-52
2023/04/09 10:23:36;;;;;;;;;;;;;;;14.09;52.26;98019.72;10412814;28;20154;-52
2023/04/09 10:28:38;;;;;;;;;;;;;;;14.34;52.23;98009.88;10419141;28;19974;-52
2023/04/09 10:33:37;;;;;;;;;;;;;;;14.62;51.80;98006.00;10406054;28;19983;-52
2023/04/09 10:38:40;;;;;;;;;;;;;;;14.25;51.13;98005.59;10406495;28;20010;-52
2023/04/09 10:43:39;;;;;;;;;;;;;;;14.26;53.00;98004.72;10408346;28;20461;-53
2023/04/09 10:48:38;;;;;;;;;;;;;;;14.40;52.57;98002.81;10408020;28;19952;-52
2023/04/09 10:53:38;;;;;;;;;;;;;;;14.07;51.93;97995.38;10407038;28;19955;-52
2023/04/09 10:58:37;;;;;;;;;;;;;;;14.13;54.05;97993.56;10419895;28;20453;-52
2023/04/09 11:03:41;;;;;;;;;;;;;;;14.12;53.36;97993.56;10416505;28;20401;-52
2023/04/09 11:08:43;;;;;;;;;;;;;;;13.91;53.54;97990.34;10407660;28;19959;-53
2023/04/09 11:13:42;;;;;;;;;;;;;;;13.87;55.32;97991.25;10404988;28;19999;-52
2023/04/09 11:18:41;;;;;;;;;;;;;;;13.72;57.20;97991.38;10411206;28;19975;-52
2023/04/09 11:23:39;;;;;;;;;;;;;;;13.79;58.15;97990.44;10407763;28;20274;-52
2023/04/09 11:28:40;;;;;;;;;;;;;;;13.79;61.24;97982.63;10405236;28;20379;-51
2023/04/09 11:33:38;;;;;;;;;;;;;;;13.75;61.10;97983.56;10405241;28;20019;-52
2023/04/09 11:38:37;;;;;;;;;;;;;;;13.80;61.25;97980.88;10405347;28;19962;-51
2023/04/09 11:43:36;;;;;;;;;;;;;;;13.80;61.83;97981.75;10408449;28;20007;-52
2023/04/09 11:48:35;;;;;;;;;;;;;;;13.71;61.47;97979.25;10404130;28;19912;-52
2023/04/09 11:53:36;;;;;;;;;;;;;;;13.66;62.88;97978.44;10409924;28;19916;-52
2023/04/09 11:58:35;;;;;;;;;;;;;;;13.67;63.63;97978.38;10403510;28;20433;-51
2023/04/09 12:03:36;;;;;;;;;;;;;;;13.75;65.12;97973.13;10403228;28;19999;-51
2023/04/09 12:08:36;;;;;;;;;;;;;;;13.78;65.60;97973.94;10406714;28;20026;-52
2023/04/09 12:13:35;;;;;;;;;;;;;;;13.77;64.75;97969.63;10394623;28;20014;-52
2023/04/09 12:18:35;;;;;;;;;;;;;;;13.74;65.37;97967.00;10403587;28;19970;-52
2023/04/09 12:23:34;;;;;;;;;;;;;;;13.68;65.15;97963.59;10401545;28;19963;-52
2023/04/09 12:28:32;;;;;;;;;;;;;;;13.69;66.05;97963.59;10404385;28;19920;-52
2023/04/09 12:33:31;;;;;;;;;;;;;;;13.63;65.26;97963.66;10403413;28;19995;-52
2023/04/09 12:38:30;;;;;;;;;;;;;;;13.56;65.40;97969.78;10403780;28;20003;-52
2023/04/09 12:43:29;;;;;;;;;;;;;;;13.85;65.75;97959.09;10403101;28;21097;-52
2023/04/09 12:48:27;;;;;;;;;;;;;;;14.20;64.14;97960.44;10376941;28;20264;-51
2023/04/09 12:53:26;;;;;;;;;;;;;;;14.44;64.69;97951.41;10402532;28;19956;-52
2023/04/09 12:58:26;;;;;;;;;;;;;;;13.91;61.71;97959.03;10400019;28;19951;-52
2023/04/09 13:03:26;;;;;;;;;;;;;;;13.36;61.28;97959.53;10398224;28;19998;-52
2023/04/09 13:08:25;;;;;;;;;;;;;;;12.58;62.56;97952.28;10404690;28;20003;-50
2023/04/09 13:13:23;;;;;;;;;;;;;;;12.28;64.35;97955.06;10404240;28;19916;-52
2023/04/09 13:18:22;;;;;;;;;;;;;;;12.17;67.56;97951.59;10400146;28;20389;-52
2023/04/09 13:23:21;;;;;;;;;;;;;;;11.46;70.29;97951.78;10412823;28;20472;-52
2023/04/09 13:28:20;;;;;;;;;;;;;;;10.87;74.52;97944.91;10400611;28;19963;-51
2023/04/09 13:33:18;;;;;;;;;;;;;;;10.75;78.23;97944.84;10401349;28;19923;-51
2023/04/09 13:38:18;;;;;;;;;;;;;;;10.02;80.81;97961.06;10407504;28;19947;-52
2023/04/09 13:43:17;;;;;;;;;;;;;;;10.19;82.40;97949.00;10396649;28;19920;-52
2023/04/09 13:48:16;;;;;;;;;;;;;;;10.17;81.18;97940.38;10398813;28;20402;-52
2023/04/09 13:53:15;;;;;;;;;;;;;;;10.18;81.29;97937.78;10396190;28;20308;-53
2023/04/09 13:58:14;;;;;;;;;;;;;;;10.26;83.21;97942.13;10398365;28;20014;-52
2023/04/09 14:03:13;;;;;;;;;;;;;;;10.43;79.50;97937.88;10399696;28;19912;-52
2023/04/09 14:08:12;;;;;;;;;;;;;;;10.52;80.03;97937.88;10383205;28;20488;-51
2023/04/09 14:13:11;;;;;;;;;;;;;;;10.72;80.85;97940.50;10397140;28;20015;-52
2023/04/09 14:18:10;;;;;;;;;;;;;;;10.86;79.43;97940.53;10399692;28;20033;-51
2023/04/09 14:23:09;;;;;;;;;;;;;;;11.13;79.91;97924.13;10397376;28;20019;-51
2023/04/09 14:28:07;;;;;;;;;;;;;;;11.40;79.24;97935.34;10396056;28;19943;-49
2023/04/09 14:35:58;;;;;;;32.13;24.23;;;;;;;11.92;80.35;97918.75;10520594;27;20127;-52
2023/04/09 14:40:57;;;;;;;30.38;23.20;;;;;;;12.26;80.50;97906.47;10456513;27;20119;-52
2023/04/09 14:45:56;;;;;;;28.15;22.00;;;;;;;12.52;76.39;97906.34;10435145;28;20032;-51
2023/04/09 14:50:56;;;;;;;;;;;;;;;12.80;76.25;97908.75;10418098;28;20064;-51
2023/04/09 14:55:55;;;;;;;24.20;18.73;;;;;;;13.09;75.24;97906.78;10436470;28;20039;-51
2023/04/09 15:00:55;;;;;;;27.65;22.10;;;;;;;12.89;69.83;97903.47;10434507;28;20474;-52
2023/04/09 15:05:54;;;;;;;45.65;31.90;;;;;;;12.80;72.67;97900.94;10434967;28;20819;-52
2023/04/09 15:10:53;;;;;;;;;;;;;;;12.63;71.66;97894.13;10416336;28;20217;-50
2023/04/09 15:15:52;;;;;;;68.55;49.15;;;;;;;12.33;74.37;97842.28;10435187;28;20403;-51
2023/04/09 15:20:50;;;;;;;26.98;22.60;;;;;;;12.67;72.95;97900.16;10434447;28;20042;-52
2023/04/09 15:25:50;;;;;;;28.50;22.95;;;;;;;12.49;73.75;97903.78;10437415;28;20028;-51
2023/04/09 15:30:49;;;;;;;28.70;21.30;;;;;;;12.45;74.38;97876.03;10433767;28;20116;-51
2023/04/09 15:35:48;;;;;;;;;;;;;;;12.54;74.97;97896.78;10436304;28;20060;-52
2023/04/09 15:40:46;;;;;;;29.52;22.52;;;;;;;12.66;74.47;97886.28;10437876;28;19962;-51
2023/04/09 15:45:47;;;;;;;30.75;25.33;;;;;;;12.64;73.86;97882.81;10418271;28;20103;-51
2023/04/09 15:50:46;;;;;;;30.38;25.25;;;;;;;12.40;72.12;97877.78;10409172;28;20055;-50
2023/04/09 15:55:45;;;;;;;29.02;24.17;;;;;;;12.04;72.94;97858.88;10409402;28;20032;-51
2023/04/09 16:00:44;;;;;;;31.95;26.25;;;;;;;12.07;73.79;97877.09;10408664;28;20056;-52
2023/04/09 16:05:43;;;;;;;28.67;23.65;;;;;;;12.08;74.62;97882.25;10408838;28;20104;-52
2023/04/09 16:10:42;;;;;;;36.13;28.33;;;;;;;12.03;73.88;97880.56;10408399;28;20068;-52
2023/04/09 16:15:41;;;;;;;25.45;19.30;;;;;;;11.17;76.35;97881.69;10408359;28;20043;-52
2023/04/09 16:20:40;;;;;;;;;;;;;;;10.65;78.24;97886.00;10404825;28;20060;-52
2023/04/09 16:25:39;;;;;;;22.95;17.60;;;;;;;10.27;80.14;97889.41;10405596;28;20002;-51
2023/04/09 16:30:38;;;;;;;27.23;19.63;;;;;;;10.03;81.06;97862.56;10388951;28;20060;-51
2023/04/09 16:35:37;;;;;;;28.95;20.65;;;;;;;10.14;80.60;97898.88;10406497;28;20115;-51
2023/04/09 16:40:36;;;;;;;23.60;17.65;;;;;;;9.84;81.93;97916.06;10402847;28;20115;-52
2023/04/09 16:45:35;;;;;;;19.73;15.00;;;;;;;9.75;82.49;97909.09;10403981;28;20117;-51
2023/04/09 16:50:34;;;;;;;24.30;17.35;;;;;;;9.34;83.78;97914.03;10401287;28;20028;-51
2023/04/09 16:55:33;;;;;;;19.20;13.93;;;;;;;8.84;86.22;97899.84;10402564;28;20521;-52
2023/04/09 17:00:34;;;;;;;26.75;17.55;;;;;;;8.90;87.74;97907.69;10402394;28;20067;-51
2023/04/09 17:05:34;;;;;;;32.25;21.90;;;;;;;8.78;88.62;97923.06;10385366;28;20060;-49
2023/04/09 17:10:35;;;;;;;23.70;16.75;;;;;;;8.56;90.20;97931.50;10401817;28;20058;-50
2023/04/09 17:15:34;;;;;;;19.52;12.88;;;;;;;8.40;89.87;97927.91;10402813;28;20052;-51
2023/04/09 17:20:33;;;;;;;19.17;14.00;;;;;;;8.13;90.56;97936.19;10401194;28;20036;-51
2023/04/09 17:25:32;;;;;;;23.40;16.60;;;;;;;8.14;92.10;97930.19;10403306;28;20031;-49
2023/04/09 17:30:32;;;;;;;32.75;20.05;;;;;;;8.11;93.14;97941.38;10401525;28;20482;-51
2023/04/09 17:35:31;;;;;;;23.25;16.35;;;;;;;8.21;92.64;97944.94;10400696;28;20452;-50
2023/04/09 17:40:30;;;;;;;64.63;43.28;;;;;;;8.12;91.79;97918.97;10400601;28;20489;-51
2023/04/09 17:45:29;;;;;;;;;;;;;;;8.45;92.51;97952.06;10402840;28;20537;-51
2023/04/09 17:50:28;;;;;;;25.85;19.08;;;;;;;8.56;92.36;97952.19;10400235;28;19912;-50
2023/04/09 17:55:27;;;;;;;22.67;15.70;;;;;;;8.69;93.25;97959.22;10401423;28;20108;-51
2023/04/09 18:00:26;;;;;;;25.02;17.83;;;;;;;8.10;93.14;97851.75;10400789;28;20124;-49
2023/04/09 18:05:25;;;;;;;26.52;19.52;;;;;;;8.77;92.57;97967.94;10401222;28;20128;-49
2023/04/09 18:10:24;;;;;;;;;;;;;;;8.88;93.04;97974.06;10401048;28;20522;-51
2023/04/09 18:15:23;;;;;;;34.33;23.02;;;;;;;8.75;93.13;97948.94;10401880;28;20420;-49
2023/04/09 18:20:22;;;;;;;27.55;19.55;;;;;;;8.91;92.00;97976.69;10401357;28;20058;-50
2023/04/09 18:25:22;;;;;;;56.35;38.95;;;;;;;8.84;91.97;97968.84;10400709;28;20108;-49
2023/04/09 18:30:21;;;;;;;33.13;23.05;;;;;;;8.86;92.59;97967.16;10399336;28;20440;-51
2023/04/09 18:35:20;;;;;;;30.52;22.17;;;;;;;9.02;92.29;97983.66;10400028;28;20111;-49
2023/04/09 18:40:19;;;;;;;30.92;22.50;;;;;;;9.05;92.13;97987.16;10382381;28;20044;-49
2023/04/09 18:45:18;;;;;;;39.58;26.65;;;;;;;8.94;91.53;97974.13;10400798;28;20052;-50
2023/04/09 18:50:17;;;;;;;41.08;29.05;;;;;;;9.05;91.47;97984.56;10398995;28;20060;-50
2023/04/09 18:55:17;;;;;;;36.47;26.55;;;;;;;9.03;91.49;97990.59;10399998;28;20071;-51
2023/04/09 19:00:16;;;;;;;36.00;26.23;;;;;;;9.06;91.77;97990.59;10400291;28;20981;-51
2023/04/09 19:05:15;;;;;;;43.95;31.10;;;;;;;9.07;91.66;97987.19;10399775;28;20036;-52
2023/04/09 19:10:14;;;;;;;47.72;35.33;;;;;;;9.06;91.49;97977.66;10399775;28;20124;-52
2023/04/09 19:15:13;;;;;;;46.97;34.72;;;;;;;9.11;91.63;97979.47;10398593;28;20033;-51
2023/04/09 19:20:12;;;;;;;58.75;42.20;;;;;;;9.15;91.88;97980.34;10401451;28;20671;-51
2023/04/09 19:25:11;;;;;;;55.42;39.33;;;;;;;9.08;91.07;97978.56;10407841;28;20100;-51
2023/04/09 19:30:11;;;;;;;60.97;45.45;;;;;;;9.06;91.68;97985.44;10406550;28;20040;-51
2023/04/09 19:35:10;;;;;;;65.60;47.03;;;;;;;9.07;91.43;97979.41;10404985;28;20171;-51
2023/04/09 19:40:09;;;;;;;44.63;31.80;;;;;;;8.85;91.90;97966.25;10407085;28;20147;-51
2023/04/09 19:45:09;;;;;;;45.33;32.10;;;;;;;8.91;92.00;97979.28;10406577;28;20071;-52
2023/04/09 19:50:08;;;;;;;46.95;32.75;;;;;;;8.65;92.47;97973.84;10396131;28;20051;-52
2023/04/09 19:55:08;;;;;;;40.33;28.15;;;;;;;8.56;93.17;97972.88;10412403;28;20124;-50
2023/04/09 20:00:07;;;;;;;36.50;26.20;;;;;;;8.60;92.92;97953.94;10405659;28;20120;-50
2023/04/09 20:05:08;;;;;;;34.90;25.15;;;;;;;8.69;92.83;97970.44;10407354;28;20048;-52
2023/04/09 20:10:09;;;;;;;36.78;26.23;;;;;;;8.83;92.50;97980.94;10407696;28;20064;-51
2023/04/09 20:15:08;;;;;;;36.95;25.85;;;;;;;8.84;92.74;97977.47;10407545;28;20079;-52
2023/04/09 20:20:07;;;;;;;36.25;25.77;;;;;;;8.88;92.78;97961.13;10407144;28;20048;-52
2023/04/09 20:25:06;;;;;;;;;;;;;;;8.88;91.70;97966.31;10408463;28;20111;-52
2023/04/09 20:30:07;;;;;;;53.50;39.05;;;;;;;8.89;92.09;97973.22;10406859;28;19918;-51
2023/04/09 20:35:07;;;;;;;53.55;36.42;;;;;;;8.83;92.29;97970.59;10404055;28;20068;-52
2023/04/09 20:40:06;;;;;;;91.68;55.97;;;;;;;8.52;92.56;97931.44;10403623;28;20072;-51
2023/04/09 20:45:06;;;;;;;74.53;47.55;;;;;;;8.71;93.09;97973.88;10405986;28;20056;-52
2023/04/09 20:50:06;;;;;;;44.22;30.10;;;;;;;8.74;93.28;97978.25;10402952;28;20144;-52
2023/04/09 20:55:05;;;;;;;113.15;67.60;;;;;;;8.69;93.16;97965.28;10400838;28;20132;-52
2023/04/09 21:00:05;;;;;;;;;;;;;;;8.75;93.45;97969.63;10403991;28;20587;-51
2023/04/09 21:05:04;;;;;;;48.97;31.43;;;;;;;8.71;93.41;97962.69;10404840;28;20429;-50
2023/04/09 21:10:04;;;;;;;52.83;32.97;;;;;;;8.73;93.43;97958.38;10407294;28;20621;-52
2023/04/09 21:15:04;;;;;;;44.85;29.27;;;;;;;8.72;93.82;97960.13;10404275;28;20082;-52
2023/04/09 21:20:03;;;;;;;36.42;23.75;;;;;;;8.78;94.16;97972.22;10403196;28;20182;-52
2023/04/09 21:25:02;;;;;;;;;;;;;;;8.69;93.26;97959.22;10406548;28;20114;-52
2023/04/09 21:30:01;;;;;;;47.75;30.83;;;;;;;8.48;93.40;97947.81;10403864;28;19912;-51
2023/04/09 21:35:00;;;;;;;46.08;30.25;;;;;;;8.45;93.75;97962.41;10401029;28;20051;-51
2023/04/09 21:39:59;;;;;;;40.50;25.05;;;;;;;8.41;93.85;97974.47;10401269;28;20577;-52
2023/04/09 21:44:58;;;;;;;33.35;21.55;;;;;;;8.34;93.93;97976.94;10398016;28;20048;-52
2023/04/09 21:49:57;;;;;;;38.95;25.40;;;;;;;8.31;94.55;97967.44;10402460;28;20044;-51
2023/04/09 21:54:56;;;;;;;41.08;27.13;;;;;;;8.24;94.06;97953.56;10402475;28;20476;-51
2023/04/09 21:59:55;;;;;;;37.45;26.02;;;;;;;8.05;94.07;97913.72;10402465;28;20482;-51
2023/04/09 22:04:54;;;;;;;48.95;32.45;;;;;;;8.27;94.40;97955.31;10401101;28;20044;-52
2023/04/09 22:09:54;;;;;;;35.53;23.60;;;;;;;8.26;94.31;97961.34;10402541;28;20074;-52
2023/04/09 22:14:54;;;;;;;32.63;21.85;;;;;;;8.24;93.90;97950.97;10404010;28;20147;-52
2023/04/09 22:19:53;;;;;;;36.70;24.98;;;;;;;8.26;94.02;97958.75;10403253;28;20537;-50
2023/04/09 22:24:52;;;;;;;41.03;26.10;;;;;;;8.26;94.41;97963.94;10406214;28;20035;-52
2023/04/09 22:29:51;;;;;;;33.95;21.73;;;;;;;8.23;93.98;97949.25;10405196;28;20113;-51
2023/04/09 22:34:49;;;;;;;29.23;20.30;;;;;;;8.30;93.18;97952.78;10406636;28;20119;-51
2023/04/09 22:39:48;;;;;;;29.92;19.05;;;;;;;8.27;93.27;97955.31;10408696;28;20033;-51
2023/04/09 22:44:47;;;;;;;33.88;23.05;;;;;;;8.26;93.99;97959.63;10408468;28;20027;-52
2023/04/09 22:49:53;;;;;;;28.25;19.23;;;;;;;8.29;93.49;97951.03;10400113;28;20040;-50
2023/04/09 22:54:54;;;;;;;31.52;22.15;;;;;;;8.03;93.86;97902.50;10405341;28;20079;-51
2023/04/09 22:59:53;;;;;;;33.75;23.33;;;;;;;8.33;93.39;97939.03;10404157;28;20063;-52
2023/04/09 23:04:52;;;;;;;39.92;26.00;;;;;;;8.27;93.37;97947.56;10413745;28;20454;-51
2023/04/09 23:09:53;;;;;;;32.22;21.02;;;;;;;8.25;93.81;97944.13;10411610;28;20131;-51
2023/04/09 23:14:53;;;;;;;29.38;20.13;;;;;;;8.14;93.18;97943.13;10409829;28;20506;-50
2023/04/09 23:19:52;;;;;;;30.83;20.50;;;;;;;8.19;93.21;97941.44;10405983;28;20138;-50
2023/04/09 23:24:51;;;;;;;33.33;23.20;;;;;;;8.13;93.31;97938.78;10410548;28;20060;-50
2023/04/09 23:29:50;;;;;;;;;;;;;;;8.25;93.87;97936.38;10407928;28;20063;-52
2023/04/09 23:34:50;;;;;;;36.28;24.52;;;;;;;8.34;93.65;97926.13;10409726;28;19944;-51
2023/04/09 23:39:48;;;;;;;;;;;;;;;8.47;93.90;97919.34;10406734;28;20107;-51
2023/04/09 23:44:49;;;;;;;27.65;19.27;;;;;;;8.51;93.14;97924.56;10406317;28;19940;-49
2023/04/09 23:49:48;;;;;;;29.65;21.25;;;;;;;8.52;92.89;97913.34;10405871;28;20119;-50
2023/04/09 23:54:50;;;;;;;35.95;25.52;;;;;;;8.25;92.93;97866.56;10406595;28;20052;-51
2023/04/09 23:59:49;;;;;;;32.40;21.23;;;;;;;8.61;92.93;97916.88;10407585;28;20060;-52
